Terminal Aerodrome Forecast
Issued by NWS Houston/Galveston TX

Home | Current Version | Previous Version | Text Only | Print | Product List | Glossary On
Versions: 1 2 3 4 5 6 7 8 9 10 11 12 13 14 15 16 17 18 19 20 21 22 23 24 25 26 27 28 29 30 31 32 33
000
FTUS44 KHGX 241725
TAFHOU
TAF
KHOU 241725Z 2418/2518 15016G26KT P6SM VCSH SCT028 OVC300
     FM242100 18016G26KT P6SM VCTS SCT025 BKN035CB
      TEMPO 2422/2502 VRB20G30KT 5SM TSRA BR BKN025CB
     FM250400 23010KT P6SM SCT015 BKN035
     FM251500 31012KT P6SM FEW040=

USA.gov is the U.S. government's official web portal to all federal, state and local government web resources and services.